createdAt,value
2023-03-19T00:00:28.004Z,76.01
2023-03-19T00:02:54.809Z,75.71
2023-03-19T00:05:21.610Z,75.54
2023-03-19T00:07:48.228Z,75.42
2023-03-19T00:10:14.996Z,75.18
2023-03-19T00:12:41.574Z,74.50
2023-03-19T00:15:13.908Z,74.88
2023-03-19T00:17:42.106Z,75.12
2023-03-19T00:20:11.042Z,74.33
2023-03-19T00:22:37.628Z,74.25
2023-03-19T00:25:04.540Z,74.13
2023-03-19T00:27:31.145Z,74.36
2023-03-19T00:29:57.823Z,74.29
2023-03-19T00:32:24.373Z,74.94
2023-03-19T00:34:50.994Z,74.01
2023-03-19T00:37:18.220Z,73.76
2023-03-19T00:39:44.818Z,73.91
2023-03-19T00:42:11.843Z,74.09
2023-03-19T00:44:38.384Z,74.18
2023-03-19T00:47:06.866Z,74.05
2023-03-19T00:49:33.502Z,74.05
2023-03-19T00:52:00.291Z,74.19
2023-03-19T00:54:27.517Z,73.75
2023-03-19T00:56:54.172Z,74.04
2023-03-19T00:59:20.827Z,73.91
2023-03-19T01:01:47.442Z,73.63
2023-03-19T01:04:14.928Z,73.84
2023-03-19T01:06:41.889Z,74.09
2023-03-19T01:09:08.634Z,73.63
2023-03-19T01:11:35.882Z,73.73
2023-03-19T01:14:03.213Z,73.88
2023-03-19T01:16:30.239Z,73.89
2023-03-19T01:18:56.762Z,74.94
2023-03-19T01:21:23.395Z,74.36
2023-03-19T01:23:51.980Z,74.88
2023-03-19T01:26:19.704Z,75.42
2023-03-19T01:28:49.330Z,74.51
2023-03-19T01:31:18.216Z,74.62
2023-03-19T01:34:03.930Z,74.52
2023-03-19T01:36:42.483Z,74.54
2023-03-19T01:39:10.626Z,75.18
2023-03-19T01:41:37.333Z,74.58
2023-03-19T01:44:31.142Z,74.73
2023-03-19T01:47:32.820Z,74.53
2023-03-19T01:50:33.598Z,74.66
2023-03-19T01:53:21.178Z,74.80
2023-03-19T01:56:24.076Z,75.14
2023-03-19T01:59:02.967Z,75.20
2023-03-19T02:01:51.184Z,74.75
2023-03-19T02:04:19.594Z,74.92
2023-03-19T02:06:46.972Z,74.65
2023-03-19T02:09:15.201Z,74.91
2023-03-19T02:11:42.080Z,74.31
2023-03-19T02:14:10.134Z,74.32
2023-03-19T02:16:36.970Z,74.75
2023-03-19T02:19:04.898Z,74.93
2023-03-19T02:21:32.093Z,74.84
2023-03-19T02:24:11.190Z,74.09
2023-03-19T02:26:51.644Z,74.34
2023-03-19T02:29:18.518Z,74.28
2023-03-19T02:31:46.114Z,74.35
2023-03-19T02:34:18.965Z,74.61
2023-03-19T02:36:57.594Z,74.85
2023-03-19T02:39:51.793Z,74.39
2023-03-19T02:42:20.140Z,74.20
2023-03-19T02:44:47.697Z,74.21
2023-03-19T02:47:15.566Z,74.83
2023-03-19T02:49:42.107Z,74.73
2023-03-19T02:52:09.187Z,74.22
2023-03-19T02:54:35.735Z,74.38
2023-03-19T02:57:02.414Z,74.44
2023-03-19T02:59:29.423Z,74.28
2023-03-19T03:01:56.106Z,74.25
2023-03-19T03:04:22.762Z,74.39
2023-03-19T03:06:49.255Z,74.15
2023-03-19T03:09:15.941Z,74.54
2023-03-19T03:11:43.107Z,73.97
2023-03-19T03:14:09.792Z,73.90
2023-03-19T03:16:37.933Z,74.20
2023-03-19T03:19:05.450Z,74.55
2023-03-19T03:21:34.355Z,74.34
2023-03-19T03:24:01.926Z,74.56
2023-03-19T03:26:28.485Z,74.65
2023-03-19T03:28:55.182Z,74.52
2023-03-19T03:31:22.131Z,74.05
2023-03-19T03:33:50.406Z,73.91
2023-03-19T03:36:17.551Z,73.93
2023-03-19T03:38:45.199Z,73.80
2023-03-19T03:41:12.815Z,73.59
2023-03-19T03:43:41.097Z,73.94
2023-03-19T03:46:08.770Z,74.37
2023-03-19T03:48:35.860Z,73.97
2023-03-19T03:51:04.346Z,74.00
2023-03-19T03:53:31.877Z,73.74
2023-03-19T03:55:58.784Z,73.82
2023-03-19T03:58:27.940Z,73.15
2023-03-19T04:00:55.446Z,74.22
2023-03-19T04:03:24.251Z,75.05
2023-03-19T04:05:51.712Z,74.39
2023-03-19T04:08:19.894Z,74.53
2023-03-19T04:10:46.833Z,74.16
2023-03-19T04:13:13.423Z,73.92
2023-03-19T04:15:43.213Z,73.88
2023-03-19T04:18:13.218Z,74.14
2023-03-19T04:20:41.135Z,74.39
2023-03-19T04:23:08.280Z,73.89
2023-03-19T04:25:34.995Z,73.96
2023-03-19T04:28:02.033Z,73.69
2023-03-19T04:30:29.009Z,74.21
2023-03-19T04:32:56.655Z,73.88
2023-03-19T04:35:23.610Z,74.57
2023-03-19T04:37:50.399Z,74.19
2023-03-19T04:40:19.484Z,74.11
2023-03-19T04:42:47.129Z,74.42
2023-03-19T04:45:25.818Z,74.24
2023-03-19T04:47:52.640Z,74.52
2023-03-19T04:50:20.063Z,74.69
2023-03-19T04:52:46.753Z,74.57
2023-03-19T04:55:14.826Z,74.68
2023-03-19T04:57:54.753Z,74.12
2023-03-19T05:00:26.483Z,74.51
2023-03-19T05:02:53.330Z,74.89
2023-03-19T05:05:19.885Z,74.78
2023-03-19T05:07:47.408Z,74.45
2023-03-19T05:10:14.223Z,75.51
2023-03-19T05:12:41.129Z,75.17
2023-03-19T05:15:09.494Z,74.91
2023-03-19T05:17:45.841Z,75.19
2023-03-19T05:20:19.863Z,74.66
2023-03-19T05:22:53.634Z,74.33
2023-03-19T05:25:24.212Z,74.67
2023-03-19T05:27:50.841Z,74.72
2023-03-19T05:30:20.409Z,74.15
2023-03-19T05:33:04.139Z,73.37
2023-03-19T05:35:37.563Z,74.54
2023-03-19T05:38:11.077Z,75.06
2023-03-19T05:40:42.054Z,75.09
2023-03-19T05:43:24.101Z,74.79
2023-03-19T05:45:54.714Z,74.17
2023-03-19T05:48:26.559Z,74.04
2023-03-19T05:50:54.261Z,73.70
2023-03-19T05:53:23.106Z,73.25
2023-03-19T05:56:08.450Z,73.51
2023-03-19T05:58:45.863Z,75.89
2023-03-19T06:01:16.165Z,74.15
2023-03-19T06:03:43.567Z,73.99
2023-03-19T06:06:10.935Z,73.36
2023-03-19T06:08:43.056Z,72.86
2023-03-19T06:11:42.854Z,73.07
2023-03-19T06:14:27.818Z,73.55
2023-03-19T06:17:27.130Z,73.27
2023-03-19T06:19:57.316Z,73.68
2023-03-19T06:22:24.272Z,73.31
2023-03-19T06:24:51.050Z,73.89
2023-03-19T06:27:17.823Z,73.72
2023-03-19T06:29:44.916Z,73.99
2023-03-19T06:32:22.774Z,73.32
2023-03-19T06:34:51.744Z,72.44
2023-03-19T06:37:19.112Z,72.67
2023-03-19T06:39:45.705Z,72.62
2023-03-19T06:42:13.325Z,72.01
2023-03-19T06:44:40.278Z,72.09
2023-03-19T06:47:08.553Z,72.46
2023-03-19T06:49:37.419Z,73.20
2023-03-19T06:52:04.272Z,72.44
2023-03-19T06:54:31.271Z,71.95
2023-03-19T06:56:58.406Z,71.56
2023-03-19T06:59:25.874Z,71.25
2023-03-19T07:01:52.633Z,71.43
2023-03-19T07:04:19.635Z,70.76
2023-03-19T07:06:46.784Z,70.89
2023-03-19T07:09:13.426Z,69.85
2023-03-19T07:11:40.392Z,69.39
2023-03-19T07:14:07.002Z,69.82
2023-03-19T07:16:33.728Z,68.96
2023-03-19T07:19:00.803Z,69.15
2023-03-19T07:21:27.751Z,69.59
2023-03-19T07:23:54.384Z,68.94
2023-03-19T07:26:21.246Z,68.68
2023-03-19T07:28:48.471Z,69.02
2023-03-19T07:31:16.966Z,69.21
2023-03-19T07:33:43.592Z,68.41
2023-03-19T07:36:10.399Z,68.22
2023-03-19T07:38:37.070Z,67.80
2023-03-19T07:41:04.209Z,68.91
2023-03-19T07:43:31.451Z,67.56
2023-03-19T07:45:58.657Z,66.83
2023-03-19T07:48:25.329Z,66.66
2023-03-19T07:50:52.309Z,66.45
2023-03-19T07:53:19.026Z,66.72
2023-03-19T07:55:45.691Z,66.06
2023-03-19T07:58:12.371Z,66.27
2023-03-19T08:00:39.070Z,65.11
2023-03-19T08:03:05.967Z,65.03
2023-03-19T08:05:32.515Z,65.10
2023-03-19T08:07:59.171Z,65.12
2023-03-19T08:10:25.945Z,65.00
2023-03-19T08:12:52.555Z,63.93
2023-03-19T08:15:19.126Z,64.16
2023-03-19T08:17:45.888Z,63.56
2023-03-19T08:20:16.381Z,62.89
2023-03-19T08:22:43.788Z,62.38
2023-03-19T08:25:10.595Z,63.73
2023-03-19T08:27:37.359Z,63.48
2023-03-19T08:30:06.292Z,63.72
2023-03-19T08:32:32.941Z,63.45
2023-03-19T08:35:00.335Z,63.01
2023-03-19T08:37:26.863Z,63.70
2023-03-19T08:39:53.400Z,63.57
2023-03-19T08:42:21.531Z,64.55
2023-03-19T08:44:48.969Z,64.10
2023-03-19T08:47:18.731Z,63.61
2023-03-19T08:49:45.370Z,63.37
2023-03-19T08:52:12.107Z,64.09
2023-03-19T08:54:38.658Z,65.62
2023-03-19T08:57:05.317Z,63.85
2023-03-19T08:59:34.228Z,64.93
2023-03-19T09:02:01.630Z,64.29
2023-03-19T09:04:28.458Z,65.36
2023-03-19T09:06:55.084Z,63.61
2023-03-19T09:09:23.653Z,64.22
2023-03-19T09:11:50.436Z,66.92
2023-03-19T09:14:20.662Z,64.28
2023-03-19T09:16:47.293Z,62.48
2023-03-19T09:19:14.249Z,63.00
2023-03-19T09:21:41.283Z,62.48
2023-03-19T09:24:07.995Z,62.88
2023-03-19T09:26:34.859Z,63.04
2023-03-19T09:29:02.210Z,61.07
2023-03-19T09:31:29.931Z,61.82
2023-03-19T09:33:56.704Z,61.47
2023-03-19T09:36:23.443Z,60.90
2023-03-19T09:38:49.961Z,61.20
2023-03-19T09:41:32.135Z,60.32
2023-03-19T09:44:11.097Z,60.15
2023-03-19T09:46:49.197Z,59.48
2023-03-19T09:49:38.449Z,58.06
2023-03-19T09:52:23.802Z,57.17
2023-03-19T09:54:52.842Z,58.36
2023-03-19T09:57:19.774Z,57.17
2023-03-19T09:59:47.186Z,57.71
2023-03-19T10:02:42.830Z,54.78
2023-03-19T10:05:50.426Z,53.05
2023-03-19T10:08:26.962Z,48.93
2023-03-19T10:11:09.923Z,49.13
2023-03-19T10:13:58.427Z,48.82
2023-03-19T10:16:27.805Z,47.76
2023-03-19T10:19:02.541Z,49.97
2023-03-19T10:21:57.328Z,49.00
2023-03-19T10:24:33.505Z,48.70
2023-03-19T10:27:03.056Z,47.10
2023-03-19T10:29:29.842Z,48.06
2023-03-19T10:32:01.672Z,47.58
2023-03-19T10:34:31.367Z,51.12
2023-03-19T10:37:00.354Z,50.64
2023-03-19T10:39:28.296Z,50.06
2023-03-19T10:42:10.178Z,50.85
2023-03-19T10:44:51.215Z,49.21
2023-03-19T10:47:22.801Z,50.16
2023-03-19T10:49:51.165Z,49.83
2023-03-19T10:52:35.216Z,49.88
2023-03-19T10:55:07.389Z,49.19
2023-03-19T10:57:35.253Z,48.36
2023-03-19T11:00:32.117Z,48.80
2023-03-19T11:02:59.224Z,49.06
2023-03-19T11:05:31.613Z,46.13
2023-03-19T11:08:05.654Z,47.56
2023-03-19T11:10:36.299Z,47.58
2023-03-19T11:13:24.786Z,48.61
2023-03-19T11:15:58.512Z,46.57
2023-03-19T11:22:23.201Z,45.71
2023-03-19T11:25:02.533Z,45.67
2023-03-19T11:27:35.029Z,46.58
2023-03-19T11:30:04.087Z,46.26
2023-03-19T11:32:56.827Z,47.33
2023-03-19T11:35:38.026Z,47.09
2023-03-19T11:38:19.618Z,46.88
2023-03-19T11:41:02.199Z,48.42
2023-03-19T11:43:46.578Z,46.95
2023-03-19T11:46:31.823Z,47.11
2023-03-19T11:48:58.568Z,48.32
2023-03-19T11:51:37.884Z,46.88
2023-03-19T11:54:13.566Z,46.18
2023-03-19T11:56:47.407Z,47.44
2023-03-19T11:59:29.420Z,46.89
2023-03-19T12:02:20.868Z,46.11
2023-03-19T12:04:53.520Z,45.83
2023-03-19T12:07:47.029Z,46.55
2023-03-19T12:10:30.166Z,46.33
2023-03-19T12:13:05.945Z,45.60
2023-03-19T12:15:52.718Z,46.25
2023-03-19T12:18:41.897Z,45.83
2023-03-19T12:21:26.993Z,45.02
2023-03-19T12:24:04.169Z,43.79
2023-03-19T12:26:52.729Z,43.32
2023-03-19T12:29:46.151Z,43.09
2023-03-19T12:32:22.606Z,42.80
2023-03-19T12:34:55.785Z,44.23
2023-03-19T12:37:31.226Z,46.43
2023-03-19T12:40:15.042Z,45.07
2023-03-19T12:42:42.106Z,43.54
2023-03-19T12:45:29.085Z,44.04
2023-03-19T12:48:02.366Z,47.81
2023-03-19T12:50:32.413Z,44.50
2023-03-19T12:53:02.160Z,45.74
2023-03-19T12:55:42.964Z,48.47
2023-03-19T12:58:20.423Z,47.67
2023-03-19T13:00:59.682Z,45.79
2023-03-19T13:03:52.439Z,45.16
2023-03-19T13:06:35.329Z,46.88
2023-03-19T13:09:09.877Z,45.20
2023-03-19T13:11:59.975Z,44.23
2023-03-19T13:15:19.810Z,43.75
2023-03-19T13:17:55.588Z,43.88
2023-03-19T13:20:46.994Z,45.15
2023-03-19T13:23:21.524Z,45.69
2023-03-19T13:25:50.537Z,46.53
2023-03-19T13:28:38.713Z,47.45
2023-03-19T13:31:08.276Z,46.78
2023-03-19T13:33:37.552Z,46.49
2023-03-19T13:36:15.060Z,47.34
2023-03-19T13:38:47.780Z,46.97
2023-03-19T13:41:42.497Z,44.62
2023-03-19T13:44:18.461Z,44.64
2023-03-19T13:46:45.456Z,46.05
2023-03-19T13:49:33.562Z,45.16
2023-03-19T13:52:21.972Z,45.67
2023-03-19T13:54:53.703Z,45.70
2023-03-19T13:57:22.699Z,46.11
2023-03-19T13:59:50.856Z,45.17
2023-03-19T14:02:26.373Z,45.51
2023-03-19T14:05:02.802Z,45.47
2023-03-19T14:07:40.350Z,47.27
2023-03-19T14:10:17.486Z,45.53
2023-03-19T14:12:45.231Z,45.65
2023-03-19T14:15:27.873Z,46.54
2023-03-19T14:17:58.551Z,44.57
2023-03-19T14:20:36.996Z,45.94
2023-03-19T14:23:11.360Z,45.73
2023-03-19T14:26:10.320Z,44.54
2023-03-19T14:28:49.592Z,46.05
2023-03-19T14:31:38.572Z,44.32
2023-03-19T14:34:08.050Z,43.54
2023-03-19T14:36:39.036Z,43.29
2023-03-19T14:39:22.501Z,43.51
2023-03-19T14:41:56.647Z,45.13
2023-03-19T14:44:54.329Z,46.18
2023-03-19T14:47:50.341Z,45.33
2023-03-19T14:50:33.174Z,45.17
2023-03-19T14:53:11.073Z,44.61
2023-03-19T14:55:38.486Z,44.64
2023-03-19T14:58:05.326Z,46.28
2023-03-19T15:00:58.444Z,46.59
2023-03-19T15:03:34.638Z,46.67
2023-03-19T15:06:03.804Z,46.09
2023-03-19T15:08:33.384Z,46.83
2023-03-19T15:11:16.298Z,48.21
2023-03-19T15:14:28.408Z,51.03
2023-03-19T15:17:06.236Z,49.57
2023-03-19T15:19:35.722Z,50.51
2023-03-19T15:22:11.461Z,52.60
2023-03-19T15:24:38.317Z,52.97
2023-03-19T15:27:25.596Z,53.73
2023-03-19T15:29:53.660Z,53.21
2023-03-19T15:33:09.068Z,52.99
2023-03-19T15:35:31.906Z,53.14
2023-03-19T15:38:01.850Z,54.71
2023-03-19T15:40:31.575Z,55.00
2023-03-19T15:43:02.228Z,54.62
2023-03-19T15:45:31.466Z,56.62
2023-03-19T15:48:04.832Z,56.29
2023-03-19T15:50:36.219Z,56.00
2023-03-19T15:53:10.658Z,56.22
2023-03-19T15:55:38.713Z,56.16
2023-03-19T15:58:15.566Z,58.06
2023-03-19T16:00:43.165Z,58.41
2023-03-19T16:03:17.572Z,56.82
2023-03-19T16:05:44.343Z,56.65
2023-03-19T16:08:22.170Z,56.46
2023-03-19T16:10:48.922Z,56.21
2023-03-19T16:13:37.856Z,57.43
2023-03-19T16:16:17.623Z,56.63
2023-03-19T16:18:53.121Z,56.76
2023-03-19T16:21:28.277Z,58.91
2023-03-19T16:23:59.172Z,59.75
2023-03-19T16:26:39.684Z,59.82
2023-03-19T16:29:19.416Z,61.08
2023-03-19T16:31:52.908Z,59.04
2023-03-19T16:34:31.873Z,59.15
2023-03-19T16:36:59.149Z,60.08
2023-03-19T16:39:33.585Z,61.97
2023-03-19T16:42:09.097Z,62.18
2023-03-19T16:44:39.841Z,63.87
2023-03-19T16:47:14.649Z,64.28
2023-03-19T16:49:41.206Z,65.41
2023-03-19T16:52:16.319Z,65.27
2023-03-19T16:54:43.819Z,66.22
2023-03-19T16:57:11.819Z,66.39
2023-03-19T16:59:38.640Z,66.98
2023-03-19T17:02:17.744Z,68.18
2023-03-19T17:04:45.413Z,68.00
2023-03-19T17:07:12.601Z,68.61
2023-03-19T17:09:39.262Z,68.53
2023-03-19T17:12:08.439Z,70.85
2023-03-19T17:14:35.624Z,72.47
2023-03-19T17:17:03.103Z,72.74
2023-03-19T17:19:35.914Z,72.46
2023-03-19T17:22:02.592Z,72.46
2023-03-19T17:24:34.821Z,72.64
2023-03-19T17:27:03.946Z,72.17
2023-03-19T17:29:31.624Z,71.35
2023-03-19T17:32:01.851Z,71.60
2023-03-19T17:34:33.516Z,72.40
2023-03-19T17:37:02.011Z,72.28
2023-03-19T17:39:32.824Z,72.85
2023-03-19T17:41:59.614Z,72.94
2023-03-19T17:44:27.913Z,73.16
2023-03-19T17:46:55.955Z,73.41
2023-03-19T17:49:37.542Z,73.91
2023-03-19T17:52:07.047Z,73.39
2023-03-19T17:54:33.591Z,73.84
2023-03-19T17:57:44.729Z,74.67
2023-03-19T18:00:12.682Z,76.05
2023-03-19T18:02:41.180Z,75.00
2023-03-19T18:05:28.147Z,75.15
2023-03-19T18:07:55.754Z,75.81
2023-03-19T18:10:27.475Z,74.97
2023-03-19T18:12:54.786Z,75.45
2023-03-19T18:15:22.583Z,75.91
2023-03-19T18:17:53.106Z,75.58
2023-03-19T18:20:22.708Z,74.61
2023-03-19T18:22:49.552Z,74.55
2023-03-19T18:25:21.368Z,74.20
2023-03-19T18:27:48.719Z,74.18
2023-03-19T18:30:18.667Z,74.08
2023-03-19T18:32:47.880Z,75.65
2023-03-19T18:35:17.154Z,75.40
2023-03-19T18:37:49.749Z,75.10
2023-03-19T18:40:23.566Z,74.62
2023-03-19T18:42:50.428Z,75.09
2023-03-19T18:45:18.459Z,75.90
2023-03-19T18:47:47.369Z,75.27
2023-03-19T18:50:24.780Z,75.31
2023-03-19T18:52:53.332Z,76.48
2023-03-19T18:55:22.077Z,76.68
2023-03-19T18:57:53.810Z,76.45
2023-03-19T19:00:31.613Z,76.10
2023-03-19T19:03:00.531Z,75.84
2023-03-19T19:05:29.847Z,76.40
2023-03-19T19:07:58.138Z,76.21
2023-03-19T19:10:25.988Z,76.14
2023-03-19T19:12:55.085Z,76.75
2023-03-19T19:15:31.246Z,76.72
2023-03-19T19:17:58.863Z,77.17
2023-03-19T19:20:28.275Z,76.45
2023-03-19T19:22:55.834Z,76.49
2023-03-19T19:25:25.856Z,76.26
2023-03-19T19:28:00.843Z,76.63
2023-03-19T19:30:28.996Z,76.16
2023-03-19T19:32:57.153Z,76.16
2023-03-19T19:35:26.864Z,76.13
2023-03-19T19:37:55.405Z,76.44
2023-03-19T19:40:29.186Z,76.88
2023-03-19T19:42:56.136Z,76.86
2023-03-19T19:45:33.149Z,76.82
2023-03-19T19:48:00.742Z,76.55
2023-03-19T19:50:28.016Z,76.55
2023-03-19T19:52:56.562Z,76.80
2023-03-19T19:55:25.573Z,76.56
2023-03-19T19:57:54.421Z,76.96
2023-03-19T20:00:29.842Z,77.63
2023-03-19T20:02:57.879Z,78.41
2023-03-19T20:05:33.483Z,77.31
2023-03-19T20:08:01.660Z,79.13
2023-03-19T20:10:31.022Z,79.86
2023-03-19T20:13:01.401Z,79.10
2023-03-19T20:15:36.073Z,78.24
2023-03-19T20:18:04.964Z,77.92
2023-03-19T20:20:33.277Z,77.81
2023-03-19T20:23:04.192Z,78.26
2023-03-19T20:25:35.038Z,78.83
2023-03-19T20:28:02.404Z,78.49
2023-03-19T20:30:31.998Z,79.08
2023-03-19T20:33:00.863Z,79.07
2023-03-19T20:35:33.973Z,78.65
2023-03-19T20:38:01.993Z,78.47
2023-03-19T20:40:32.637Z,78.25
2023-03-19T20:43:00.832Z,78.42
2023-03-19T20:45:45.983Z,77.98
2023-03-19T20:48:16.578Z,78.53
2023-03-19T20:50:44.265Z,79.31
2023-03-19T20:53:11.269Z,79.14
2023-03-19T20:55:39.944Z,79.19
2023-03-19T20:58:16.435Z,78.46
2023-03-19T21:00:43.590Z,78.84
2023-03-19T21:03:17.955Z,80.16
2023-03-19T21:05:45.189Z,79.50
2023-03-19T21:08:19.614Z,78.73
2023-03-19T21:10:49.243Z,78.80
2023-03-19T21:13:18.038Z,79.48
2023-03-19T21:15:46.388Z,78.31
2023-03-19T21:18:13.209Z,78.07
2023-03-19T21:20:42.485Z,77.29
2023-03-19T21:23:31.700Z,77.27
2023-03-19T21:25:59.996Z,77.19
2023-03-19T21:28:26.626Z,76.98
2023-03-19T21:30:53.435Z,76.88
2023-03-19T21:33:24.676Z,76.25
2023-03-19T21:35:52.875Z,76.62
2023-03-19T21:38:19.867Z,77.38
2023-03-19T21:40:46.950Z,77.22
2023-03-19T21:43:20.726Z,76.81
2023-03-19T21:45:49.421Z,77.64
2023-03-19T21:48:32.977Z,75.53
2023-03-19T21:51:01.463Z,76.57
2023-03-19T21:53:28.903Z,77.04
2023-03-19T21:55:58.449Z,76.32
2023-03-19T21:58:31.318Z,75.74
2023-03-19T22:00:58.661Z,74.83
2023-03-19T22:03:25.770Z,74.95
2023-03-19T22:05:52.640Z,74.49
2023-03-19T22:08:20.885Z,74.70
2023-03-19T22:10:55.331Z,76.02
2023-03-19T22:13:25.968Z,75.68
2023-03-19T22:15:54.409Z,75.04
2023-03-19T22:18:21.672Z,75.00
2023-03-19T22:20:50.183Z,74.65
2023-03-19T22:23:18.240Z,74.45
2023-03-19T22:25:47.757Z,74.25
2023-03-19T22:28:30.627Z,75.44
2023-03-19T22:30:57.718Z,74.52
2023-03-19T22:33:26.511Z,74.25
2023-03-19T22:35:53.937Z,74.42
2023-03-19T22:38:22.691Z,74.37
2023-03-19T22:40:52.721Z,75.37
2023-03-19T22:43:30.264Z,76.72
2023-03-19T22:46:02.310Z,76.54
2023-03-19T22:48:28.999Z,76.26
2023-03-19T22:50:55.785Z,76.25
2023-03-19T22:53:28.081Z,75.30
2023-03-19T22:55:55.581Z,75.73
2023-03-19T22:58:23.197Z,76.00
2023-03-19T23:00:50.698Z,75.81
2023-03-19T23:03:26.037Z,76.16
2023-03-19T23:05:56.869Z,75.91
2023-03-19T23:08:23.450Z,75.91
2023-03-19T23:10:51.391Z,76.69
2023-03-19T23:13:18.059Z,76.16
2023-03-19T23:15:45.620Z,76.23
2023-03-19T23:18:19.274Z,78.10
2023-03-19T23:20:47.064Z,79.04
2023-03-19T23:23:16.380Z,79.92
2023-03-19T23:25:44.359Z,79.06
2023-03-19T23:28:24.612Z,78.67
2023-03-19T23:30:51.992Z,78.27
2023-03-19T23:33:19.926Z,78.89
2023-03-19T23:35:47.350Z,78.39
2023-03-19T23:38:15.079Z,78.58
2023-03-19T23:40:46.513Z,78.33
2023-03-19T23:43:27.252Z,78.56
2023-03-19T23:45:55.146Z,79.13
2023-03-19T23:48:31.813Z,79.16
2023-03-19T23:50:58.468Z,78.23
2023-03-19T23:53:27.321Z,78.18
2023-03-19T23:56:09.192Z,78.42
2023-03-19T23:58:42.652Z,79.57
